sensor_id;sensor_type;location;lat;lon;timestamp;pressure;altitude;pressure_sealevel;temperature;humidity
56632;BME280;42503;39.928;-75.152;2023-08-07T00:02:10;101260.69;;;27.91;52.19
56632;BME280;42503;39.928;-75.152;2023-08-07T00:12:11;101270.38;;;28.07;51.88
56632;BME280;42503;39.928;-75.152;2023-08-07T00:22:13;101279.50;;;28.12;51.80
56632;BME280;42503;39.928;-75.152;2023-08-07T00:32:14;101298.09;;;28.22;51.36
56632;BME280;42503;39.928;-75.152;2023-08-07T00:42:15;101295.28;;;28.22;51.27
56632;BME280;42503;39.928;-75.152;2023-08-07T00:52:17;101287.66;;;28.14;51.55
56632;BME280;42503;39.928;-75.152;2023-08-07T01:02:18;101317.16;;;28.25;51.27
56632;BME280;42503;39.928;-75.152;2023-08-07T01:12:28;101335.16;;;28.38;51.18
56632;BME280;42503;39.928;-75.152;2023-08-07T01:22:31;101330.34;;;28.39;51.04
56632;BME280;42503;39.928;-75.152;2023-08-07T01:42:48;101361.16;;;28.44;51.08
56632;BME280;42503;39.928;-75.152;2023-08-07T01:52:50;101352.72;;;28.44;51.08
56632;BME280;42503;39.928;-75.152;2023-08-07T02:02:51;101344.81;;;28.46;51.12
56632;BME280;42503;39.928;-75.152;2023-08-07T02:12:53;101326.22;;;28.22;49.63
56632;BME280;42503;39.928;-75.152;2023-08-07T02:22:54;101324.44;;;27.59;48.29
56632;BME280;42503;39.928;-75.152;2023-08-07T02:32:55;101311.53;;;27.22;48.21
56632;BME280;42503;39.928;-75.152;2023-08-07T02:42:57;101321.06;;;27.07;51.46
56632;BME280;42503;39.928;-75.152;2023-08-07T02:53:00;101321.06;;;27.34;54.57
56632;BME280;42503;39.928;-75.152;2023-08-07T03:03:02;101315.69;;;27.60;54.34
56632;BME280;42503;39.928;-75.152;2023-08-07T03:13:03;101320.53;;;27.82;53.57
56632;BME280;42503;39.928;-75.152;2023-08-07T03:23:07;101329.19;;;27.95;52.99
56632;BME280;42503;39.928;-75.152;2023-08-07T03:33:09;101330.56;;;27.97;52.52
56632;BME280;42503;39.928;-75.152;2023-08-07T03:43:10;101339.38;;;28.04;52.11
56632;BME280;42503;39.928;-75.152;2023-08-07T03:53:14;101321.84;;;28.07;52.07
56632;BME280;42503;39.928;-75.152;2023-08-07T04:03:22;101317.03;;;28.08;51.89
56632;BME280;42503;39.928;-75.152;2023-08-07T04:13:23;101321.53;;;28.09;51.93
56632;BME280;42503;39.928;-75.152;2023-08-07T04:23:30;101329.19;;;28.17;51.84
56632;BME280;42503;39.928;-75.152;2023-08-07T04:33:32;101334.44;;;28.32;51.57
56632;BME280;42503;39.928;-75.152;2023-08-07T04:43:36;101325.59;;;28.25;51.47
56632;BME280;42503;39.928;-75.152;2023-08-07T04:53:38;101313.25;;;28.35;51.35
56632;BME280;42503;39.928;-75.152;2023-08-07T05:03:39;101304.38;;;28.19;51.50
56632;BME280;42503;39.928;-75.152;2023-08-07T05:13:40;101319.59;;;28.41;51.19
56632;BME280;42503;39.928;-75.152;2023-08-07T05:23:42;101330.19;;;28.44;51.12
56632;BME280;42503;39.928;-75.152;2023-08-07T05:33:43;101294.13;;;28.46;50.92
56632;BME280;42503;39.928;-75.152;2023-08-07T05:43:45;101265.97;;;28.46;51.12
56632;BME280;42503;39.928;-75.152;2023-08-07T05:53:47;101251.25;;;28.49;51.00
56632;BME280;42503;39.928;-75.152;2023-08-07T06:03:51;101217.41;;;28.40;50.90
56632;BME280;42503;39.928;-75.152;2023-08-07T06:13:52;101225.91;;;28.49;51.10
56632;BME280;42503;39.928;-75.152;2023-08-07T06:23:57;101192.63;;;28.42;51.18
56632;BME280;42503;39.928;-75.152;2023-08-07T06:33:59;101159.41;;;28.30;50.81
56632;BME280;42503;39.928;-75.152;2023-08-07T06:44:03;101183.69;;;28.09;46.64
56632;BME280;42503;39.928;-75.152;2023-08-07T06:54:04;101179.16;;;27.23;45.05
56632;BME280;42503;39.928;-75.152;2023-08-07T07:04:09;101162.72;;;27.17;52.00
56632;BME280;42503;39.928;-75.152;2023-08-07T07:14:10;101135.78;;;27.38;54.04
56632;BME280;42503;39.928;-75.152;2023-08-07T07:24:12;101168.81;;;27.77;53.41
56632;BME280;42503;39.928;-75.152;2023-08-07T07:34:13;101157.13;;;27.93;53.19
56632;BME280;42503;39.928;-75.152;2023-08-07T07:44:14;101159.78;;;27.98;52.85
56632;BME280;42503;39.928;-75.152;2023-08-07T07:54:19;101148.72;;;28.01;52.66
56632;BME280;42503;39.928;-75.152;2023-08-07T08:04:20;101140.63;;;28.08;52.52
56632;BME280;42503;39.928;-75.152;2023-08-07T08:14:22;101137.00;;;28.08;51.89
56632;BME280;42503;39.928;-75.152;2023-08-07T08:24:23;101129.53;;;28.03;51.89
56632;BME280;42503;39.928;-75.152;2023-08-07T08:34:26;101122.44;;;28.06;51.76
56632;BME280;42503;39.928;-75.152;2023-08-07T08:44:28;101126.56;;;28.08;51.61
56632;BME280;42503;39.928;-75.152;2023-08-07T08:54:31;101120.47;;;28.15;51.53
56632;BME280;42503;39.928;-75.152;2023-08-07T09:04:33;101126.97;;;28.24;51.63
56632;BME280;42503;39.928;-75.152;2023-08-07T09:14:39;101118.53;;;28.24;51.72
56632;BME280;42503;39.928;-75.152;2023-08-07T09:24:42;101136.41;;;28.28;51.46
56632;BME280;42503;39.928;-75.152;2023-08-07T09:34:44;101113.34;;;28.18;51.22
56632;BME280;42503;39.928;-75.152;2023-08-07T09:44:45;101131.78;;;28.32;51.21
56632;BME280;42503;39.928;-75.152;2023-08-07T09:54:47;101123.50;;;28.27;51.17
56632;BME280;42503;39.928;-75.152;2023-08-07T10:04:50;101121.38;;;28.33;51.20
56632;BME280;42503;39.928;-75.152;2023-08-07T10:14:53;101047.09;;;27.94;50.96
56632;BME280;42503;39.928;-75.152;2023-08-07T10:24:57;101107.81;;;28.35;51.21
56632;BME280;42503;39.928;-75.152;2023-08-07T10:35:03;101110.75;;;28.30;51.22
56632;BME280;42503;39.928;-75.152;2023-08-07T10:45:06;101050.25;;;27.93;51.05
56632;BME280;42503;39.928;-75.152;2023-08-07T10:55:14;101128.19;;;28.41;50.94
56632;BME280;42503;39.928;-75.152;2023-08-07T11:05:15;101113.63;;;28.39;51.12
56632;BME280;42503;39.928;-75.152;2023-08-07T11:15:24;101121.91;;;28.44;50.81
56632;BME280;42503;39.928;-75.152;2023-08-07T11:25:27;101138.63;;;28.40;51.02
56632;BME280;42503;39.928;-75.152;2023-08-07T11:35:30;101125.25;;;28.46;50.93
56632;BME280;42503;39.928;-75.152;2023-08-07T11:45:31;101131.84;;;28.50;50.79
56632;BME280;42503;39.928;-75.152;2023-08-07T11:55:33;101118.44;;;28.47;50.70
56632;BME280;42503;39.928;-75.152;2023-08-07T12:05:39;101113.97;;;28.46;50.84
56632;BME280;42503;39.928;-75.152;2023-08-07T12:15:41;101121.75;;;28.49;50.61
56632;BME280;42503;39.928;-75.152;2023-08-07T12:25:45;101111.28;;;28.41;50.98
56632;BME280;42503;39.928;-75.152;2023-08-07T12:35:46;101090.72;;;28.31;50.75
56632;BME280;42503;39.928;-75.152;2023-08-07T12:45:47;101113.13;;;28.45;50.75
56632;BME280;42503;39.928;-75.152;2023-08-07T12:55:49;101123.91;;;28.52;50.72
56632;BME280;42503;39.928;-75.152;2023-08-07T13:05:51;101113.47;;;28.44;50.66
56632;BME280;42503;39.928;-75.152;2023-08-07T13:15:52;101119.28;;;28.56;50.80
56632;BME280;42503;39.928;-75.152;2023-08-07T13:25:53;101121.09;;;28.52;50.72
56632;BME280;42503;39.928;-75.152;2023-08-07T13:35:58;101104.69;;;28.54;50.79
56632;BME280;42503;39.928;-75.152;2023-08-07T13:45:59;101106.81;;;28.40;47.61
56632;BME280;42503;39.928;-75.152;2023-08-07T13:56:03;101090.81;;;27.38;46.10
56632;BME280;42503;39.928;-75.152;2023-08-07T14:06:08;101108.28;;;27.26;51.44
56632;BME280;42503;39.928;-75.152;2023-08-07T14:16:09;101093.06;;;27.50;54.24
56632;BME280;42503;39.928;-75.152;2023-08-07T14:26:11;101088.28;;;27.81;53.63
56632;BME280;42503;39.928;-75.152;2023-08-07T14:36:13;101092.28;;;27.98;52.97
56632;BME280;42503;39.928;-75.152;2023-08-07T14:46:16;101088.50;;;28.02;52.54
56632;BME280;42503;39.928;-75.152;2023-08-07T14:56:19;101074.47;;;28.11;52.05
56632;BME280;42503;39.928;-75.152;2023-08-07T15:06:20;101074.31;;;28.25;51.78
56632;BME280;42503;39.928;-75.152;2023-08-07T15:16:22;101066.56;;;28.30;51.37
56632;BME280;42503;39.928;-75.152;2023-08-07T15:26:24;101033.16;;;28.38;51.55
56632;BME280;42503;39.928;-75.152;2023-08-07T15:36:25;101026.03;;;28.40;51.23
56632;BME280;42503;39.928;-75.152;2023-08-07T15:46:27;101007.00;;;28.46;51.03
56632;BME280;42503;39.928;-75.152;2023-08-07T15:56:29;101004.69;;;28.48;50.93
56632;BME280;42503;39.928;-75.152;2023-08-07T16:06:30;100988.44;;;28.45;50.97
56632;BME280;42503;39.928;-75.152;2023-08-07T16:16:37;100966.28;;;28.43;50.99
56632;BME280;42503;39.928;-75.152;2023-08-07T16:26:42;100960.00;;;28.46;50.85
56632;BME280;42503;39.928;-75.152;2023-08-07T16:36:43;100953.38;;;28.51;50.83
56632;BME280;42503;39.928;-75.152;2023-08-07T16:46:45;100947.03;;;28.54;50.84
56632;BME280;42503;39.928;-75.152;2023-08-07T16:56:46;100949.53;;;28.55;50.99
56632;BME280;42503;39.928;-75.152;2023-08-07T17:06:48;100921.53;;;28.59;51.01
56632;BME280;42503;39.928;-75.152;2023-08-07T17:16:49;100861.63;;;28.32;51.06
56632;BME280;42503;39.928;-75.152;2023-08-07T17:26:51;100898.34;;;28.62;51.17
56632;BME280;42503;39.928;-75.152;2023-08-07T17:36:52;100883.63;;;28.65;51.28
56632;BME280;42503;39.928;-75.152;2023-08-07T17:46:53;100880.78;;;28.65;51.62
56632;BME280;42503;39.928;-75.152;2023-08-07T17:56:55;100866.38;;;28.67;51.78
56632;BME280;42503;39.928;-75.152;2023-08-07T18:06:56;100847.41;;;28.03;49.02
56632;BME280;42503;39.928;-75.152;2023-08-07T18:16:58;100816.34;;;27.91;54.91
56632;BME280;42503;39.928;-75.152;2023-08-07T18:26:59;100795.28;;;28.14;53.92
56632;BME280;42503;39.928;-75.152;2023-08-07T18:37:01;100763.13;;;28.32;53.21
56632;BME280;42503;39.928;-75.152;2023-08-07T18:47:02;100776.22;;;28.46;53.61
56632;BME280;42503;39.928;-75.152;2023-08-07T18:57:04;100756.94;;;28.01;55.48
56632;BME280;42503;39.928;-75.152;2023-08-07T19:07:09;100746.50;;;27.93;54.61
56632;BME280;42503;39.928;-75.152;2023-08-07T19:17:10;100714.59;;;27.62;54.23
56632;BME280;42503;39.928;-75.152;2023-08-07T19:27:12;100709.66;;;27.59;53.78
56632;BME280;42503;39.928;-75.152;2023-08-07T19:37:13;100637.56;;;27.03;53.84
56632;BME280;42503;39.928;-75.152;2023-08-07T19:47:15;100648.00;;;27.28;53.36
56632;BME280;42503;39.928;-75.152;2023-08-07T19:57:17;100670.84;;;27.35;53.35
56632;BME280;42503;39.928;-75.152;2023-08-07T20:07:18;100642.22;;;27.25;53.29
56632;BME280;42503;39.928;-75.152;2023-08-07T20:17:19;100608.53;;;27.16;53.44
56632;BME280;42503;39.928;-75.152;2023-08-07T20:27:21;100599.97;;;27.13;52.63
56632;BME280;42503;39.928;-75.152;2023-08-07T20:37:22;100582.59;;;27.10;52.92
56632;BME280;42503;39.928;-75.152;2023-08-07T20:47:29;100551.50;;;27.07;52.59
56632;BME280;42503;39.928;-75.152;2023-08-07T20:57:30;100588.69;;;27.04;52.79
56632;BME280;42503;39.928;-75.152;2023-08-07T21:07:31;100612.47;;;26.98;52.76
56632;BME280;42503;39.928;-75.152;2023-08-07T21:17:33;100606.38;;;26.96;52.51
56632;BME280;42503;39.928;-75.152;2023-08-07T21:27:34;100568.69;;;26.71;52.78
56632;BME280;42503;39.928;-75.152;2023-08-07T21:37:36;100562.78;;;26.90;52.77
56632;BME280;42503;39.928;-75.152;2023-08-07T21:47:38;100534.34;;;26.82;52.63
56632;BME280;42503;39.928;-75.152;2023-08-07T21:57:45;100536.00;;;26.75;52.53
56632;BME280;42503;39.928;-75.152;2023-08-07T22:07:47;100506.63;;;26.72;52.29
56632;BME280;42503;39.928;-75.152;2023-08-07T22:17:48;100473.44;;;26.66;52.25
56632;BME280;42503;39.928;-75.152;2023-08-07T22:27:50;100521.97;;;26.49;51.95
56632;BME280;42503;39.928;-75.152;2023-08-07T22:37:56;100571.50;;;26.53;52.53
56632;BME280;42503;39.928;-75.152;2023-08-07T22:48:06;100735.06;;;26.54;52.53
56632;BME280;42503;39.928;-75.152;2023-08-07T22:58:08;100708.97;;;26.45;51.79
56632;BME280;42503;39.928;-75.152;2023-08-07T23:08:09;100687.41;;;26.31;52.14
56632;BME280;42503;39.928;-75.152;2023-08-07T23:18:14;100775.88;;;26.38;51.64
56632;BME280;42503;39.928;-75.152;2023-08-07T23:28:15;100759.66;;;26.48;54.78
56632;BME280;42503;39.928;-75.152;2023-08-07T23:38:17;100714.34;;;26.72;55.21
56632;BME280;42503;39.928;-75.152;2023-08-07T23:48:19;100709.75;;;27.02;54.72
56632;BME280;42503;39.928;-75.152;2023-08-07T23:58:20;100692.88;;;26.94;54.29
